Time;durP1;ratioP1;P1;durP2;ratioP2;P2;SDS_P1;SDS_P2;PMS_P1;PMS_P2;Temp;Humidity;BMP_temperature;BMP_pressure;BME280_temperature;BME280_humidity;BME280_pressure;Samples;Min_cycle;Max_cycle;Signal;HPM_P1;HPM_P2
2020/12/12 00:01:47;;;;;;;4.27;3.40;;;5.00;97.70;;;;;;5052920;28;20201;-71
2020/12/12 00:04:13;;;;;;;4.88;3.08;;;5.00;97.70;;;;;;5053180;28;20174;-71
2020/12/12 00:06:38;;;;;;;3.80;3.27;;;5.00;97.70;;;;;;5052772;28;20243;-71
2020/12/12 00:09:04;;;;;;;4.83;3.23;;;4.90;97.90;;;;;;5052994;28;20178;-71
2020/12/12 00:11:30;;;;;;;5.37;3.60;;;4.90;98.10;;;;;;5052823;28;20558;-71
2020/12/12 00:13:55;;;;;;;3.60;3.30;;;5.00;98.00;;;;;;5052949;28;20236;-71
2020/12/12 00:16:21;;;;;;;3.10;2.90;;;5.00;98.00;;;;;;5052683;28;20678;-71
2020/12/12 00:18:47;;;;;;;3.37;3.03;;;5.00;97.90;;;;;;5053013;28;20232;-71
2020/12/12 00:21:13;;;;;;;3.20;2.90;;;5.00;97.70;;;;;;5052967;28;20220;-71
2020/12/12 00:23:39;;;;;;;2.22;1.70;;;5.00;97.90;;;;;;5052664;28;20221;-71
2020/12/12 00:26:06;;;;;;;7.07;3.80;;;5.00;98.30;;;;;;5052780;28;20539;-71
2020/12/12 00:28:32;;;;;;;6.28;4.22;;;5.00;97.80;;;;;;5052892;28;20163;-71
2020/12/12 00:30:59;;;;;;;3.20;2.83;;;5.00;97.80;;;;;;5052674;28;20193;-71
2020/12/12 00:33:24;;;;;;;4.70;4.00;;;4.90;97.70;;;;;;5053215;28;20749;-70
2020/12/12 00:35:50;;;;;;;3.90;3.37;;;4.70;98.10;;;;;;5056317;28;20181;-71
2020/12/12 00:38:15;;;;;;;3.60;2.97;;;4.60;98.40;;;;;;5056397;28;20170;-71
2020/12/12 00:40:41;;;;;;;2.83;2.60;;;4.60;98.70;;;;;;5056153;28;20190;-71
2020/12/12 00:43:07;;;;;;;2.40;2.20;;;4.50;98.90;;;;;;5056339;28;20268;-71
2020/12/12 00:45:32;;;;;;;2.27;2.17;;;4.40;99.00;;;;;;5055858;28;20650;-71
2020/12/12 00:47:58;;;;;;;2.33;2.23;;;4.40;99.40;;;;;;5056281;28;20181;-71
2020/12/12 00:50:24;;;;;;;3.13;2.30;;;4.50;99.60;;;;;;5055957;28;20281;-71
2020/12/12 00:52:50;;;;;;;2.20;2.00;;;4.70;99.10;;;;;;5056043;28;20174;-71
2020/12/12 00:55:16;;;;;;;2.25;2.05;;;4.80;98.70;;;;;;5055810;28;20254;-71
2020/12/12 00:57:41;;;;;;;2.97;1.60;;;4.90;98.50;;;;;;5056053;28;20172;-71
2020/12/12 01:00:07;;;;;;;1.33;1.23;;;4.90;98.50;;;;;;5055868;28;20189;-71
2020/12/12 01:02:33;;;;;;;1.63;1.53;;;4.90;98.40;;;;;;5056052;28;20178;-71
2020/12/12 01:05:00;;;;;;;1.87;1.77;;;4.90;98.40;;;;;;5055749;28;20169;-71
2020/12/12 01:07:26;;;;;;;1.30;1.05;;;4.90;98.40;;;;;;5055742;28;20162;-71
2020/12/12 01:09:52;;;;;;;2.00;1.80;;;4.90;98.30;;;;;;5055739;28;20194;-71
2020/12/12 01:12:18;;;;;;;2.10;2.00;;;4.90;98.30;;;;;;5055794;28;20737;-71
2020/12/12 01:14:45;;;;;;;3.72;2.60;;;4.90;98.40;;;;;;5055480;28;20201;-71
2020/12/12 01:17:11;;;;;;;2.20;1.83;;;4.90;98.60;;;;;;5055488;28;20257;-71
2020/12/12 01:19:36;;;;;;;1.33;1.23;;;4.90;98.30;;;;;;5055448;28;20204;-71
2020/12/12 01:22:02;;;;;;;2.37;2.17;;;5.00;98.20;;;;;;5055491;28;20175;-71
2020/12/12 01:24:28;;;;;;;2.73;2.57;;;5.00;98.10;;;;;;5055412;28;20267;-71
2020/12/12 01:26:54;;;;;;;1.50;1.40;;;4.90;98.00;;;;;;5055231;28;20550;-71
2020/12/12 01:29:20;;;;;;;1.87;1.77;;;5.00;98.10;;;;;;5055456;28;20228;-71
2020/12/12 01:31:49;;;;;;;2.10;1.90;;;5.00;98.00;;;;;;5055231;28;20194;-71
2020/12/12 01:34:16;;;;;;;2.78;2.40;;;4.90;98.20;;;;;;5055148;28;20236;-71
2020/12/12 01:36:42;;;;;;;1.35;1.25;;;4.90;98.30;;;;;;5055019;28;20179;-71
2020/12/12 01:39:08;;;;;;;1.40;1.30;;;4.70;98.50;;;;;;5055388;28;20163;-71
2020/12/12 01:41:33;;;;;;;1.50;1.10;;;4.60;98.90;;;;;;5054951;28;20191;-71
2020/12/12 01:43:59;;;;;;;1.00;0.90;;;4.70;99.20;;;;;;5055132;28;20256;-71
2020/12/12 01:46:26;;;;;;;3.00;1.47;;;4.70;99.20;;;;;;5054607;28;20217;-71
2020/12/12 01:48:54;;;;;;;0.85;0.85;;;4.80;99.30;;;;;;5054982;28;20206;-71
2020/12/12 01:51:25;;;;;;;1.10;1.00;;;4.80;99.30;;;;;;5054818;28;20592;-71
2020/12/12 01:53:55;;;;;;;1.15;1.05;;;4.80;99.40;;;;;;5055056;28;20280;-71
2020/12/12 01:56:21;;;;;;;1.23;0.82;;;4.60;99.30;;;;;;5054672;28;20182;-71
2020/12/12 01:58:46;;;;;;;1.58;1.10;;;4.70;99.50;;;;;;5054943;28;20671;-71
2020/12/12 02:01:13;;;;;;;1.43;1.30;;;4.60;99.60;;;;;;5054651;28;20220;-71
2020/12/12 02:03:43;;;;;;;4.65;1.75;;;4.70;99.60;;;;;;5054951;28;20174;-70
2020/12/12 02:06:13;;;;;;;3.72;1.83;;;4.60;99.60;;;;;;5054646;28;20173;-71
2020/12/12 02:08:39;;;;;;;1.13;1.02;;;4.60;99.70;;;;;;5054803;28;20628;-71
2020/12/12 02:11:08;;;;;;;1.00;1.00;;;4.60;99.70;;;;;;5054434;28;20558;-70
2020/12/12 02:13:35;;;;;;;1.55;1.45;;;4.60;99.70;;;;;;5054365;28;20190;-70
2020/12/12 02:16:00;;;;;;;1.40;1.30;;;4.60;99.80;;;;;;5054254;28;20213;-70
2020/12/12 02:18:26;;;;;;;0.90;0.90;;;4.40;99.60;;;;;;5054264;28;20201;-71
2020/12/12 02:20:57;;;;;;;0.80;0.80;;;4.40;99.70;;;;;;5054367;28;20271;-71
2020/12/12 02:23:23;;;;;;;1.45;1.45;;;4.50;99.90;;;;;;5052792;28;20678;-71
2020/12/12 02:25:49;;;;;;;0.88;0.88;;;4.50;99.80;;;;;;5054130;28;20178;-71
2020/12/12 02:28:20;;;;;;;1.23;1.00;;;4.40;99.80;;;;;;5054203;28;20288;-71
2020/12/12 02:30:46;;;;;;;1.10;1.00;;;4.40;99.90;;;;;;5052839;28;20293;-71
2020/12/12 02:33:12;;;;;;;0.75;0.70;;;4.50;99.90;;;;;;5054215;28;20513;-71
2020/12/12 02:35:38;;;;;;;0.73;0.73;;;4.30;99.80;;;;;;5053720;28;20297;-71
2020/12/12 02:38:04;;;;;;;1.17;0.90;;;4.30;99.90;;;;;;5054041;28;20210;-71
2020/12/12 02:40:30;;;;;;;0.85;0.70;;;4.30;99.90;;;;;;5053910;28;20247;-70
2020/12/12 02:42:55;;;;;;;1.07;0.80;;;4.30;99.80;;;;;;5053971;28;20178;-71
2020/12/12 02:45:21;;;;;;;0.60;0.60;;;4.30;99.80;;;;;;5053899;28;20257;-71
2020/12/12 02:47:47;;;;;;;0.73;0.60;;;4.30;99.90;;;;;;5054036;28;20174;-71
2020/12/12 02:50:14;;;;;;;1.27;1.17;;;4.20;99.90;;;;;;5053901;28;20425;-70
2020/12/12 02:52:42;;;;;;;0.95;0.80;;;4.10;99.90;;;;;;5053772;28;20887;-71
2020/12/12 02:55:10;;;;;;;0.98;0.95;;;4.00;99.90;;;;;;5053474;28;20720;-70
2020/12/12 02:57:36;;;;;;;0.65;0.65;;;4.00;99.90;;;;;;5053234;28;20575;-71
2020/12/12 03:00:13;;;;;;;0.90;0.73;;;4.10;99.90;;;;;;5052387;28;20197;-71
2020/12/12 03:02:39;;;;;;;0.65;0.65;;;4.10;99.90;;;;;;5053712;28;20241;-71
2020/12/12 03:05:06;;;;;;;2.05;1.45;;;4.10;99.90;;;;;;5053433;28;20178;-71
2020/12/12 03:07:32;;;;;;;0.75;0.60;;;4.00;99.90;;;;;;5053545;28;20196;-71
2020/12/12 03:09:58;;;;;;;0.50;0.50;;;3.90;99.90;;;;;;5052218;28;20678;-71
2020/12/12 03:12:24;;;;;;;0.53;0.50;;;4.00;99.90;;;;;;5053512;28;20178;-71
2020/12/12 03:14:50;;;;;;;0.57;0.57;;;4.10;99.90;;;;;;5053336;28;20277;-71
2020/12/12 03:17:15;;;;;;;0.83;0.70;;;4.10;99.90;;;;;;5053438;28;20416;-71
2020/12/12 03:19:41;;;;;;;1.30;0.87;;;4.00;99.90;;;;;;5053336;28;20582;-71
2020/12/12 03:22:07;;;;;;;0.50;0.50;;;4.00;99.90;;;;;;5053386;28;20636;-71
2020/12/12 03:24:33;;;;;;;0.50;0.50;;;4.00;99.90;;;;;;5053245;28;20679;-70
2020/12/12 03:26:59;;;;;;;0.40;0.40;;;4.20;99.90;;;;;;5053204;28;20185;-71
2020/12/12 03:29:25;;;;;;;0.70;0.50;;;4.30;99.90;;;;;;5053305;28;20174;-70
2020/12/12 03:31:51;;;;;;;0.40;0.40;;;4.10;99.90;;;;;;5053197;28;20162;-71
2020/12/12 03:34:17;;;;;;;0.40;0.40;;;4.10;99.90;;;;;;5053373;28;20470;-71
2020/12/12 03:36:42;;;;;;;0.70;0.70;;;4.20;99.90;;;;;;5053119;28;20303;-71
2020/12/12 03:39:08;;;;;;;0.40;0.40;;;4.30;99.90;;;;;;5053268;28;20211;-71
2020/12/12 03:41:34;;;;;;;0.63;0.63;;;4.40;99.90;;;;;;5053180;28;20182;-71
2020/12/12 03:43:59;;;;;;;0.70;0.70;;;4.50;99.80;;;;;;5053158;28;20611;-70
2020/12/12 03:46:25;;;;;;;0.60;0.60;;;4.70;99.50;;;;;;5053090;28;20175;-71
2020/12/12 03:48:51;;;;;;;6.80;1.77;;;4.70;99.30;;;;;;5053357;28;20536;-71
2020/12/12 03:51:16;;;;;;;1.03;0.97;;;4.80;99.10;;;;;;5053056;28;20194;-71
2020/12/12 03:53:42;;;;;;;0.83;0.83;;;4.80;98.90;;;;;;5053104;28;20204;-71
2020/12/12 03:56:07;;;;;;;1.60;1.50;;;4.90;98.70;;;;;;5053040;28;20209;-70
2020/12/12 03:58:33;;;;;;;0.80;0.80;;;4.90;98.60;;;;;;5053152;28;20261;-71
2020/12/12 04:00:59;;;;;;;1.57;1.40;;;4.90;98.50;;;;;;5053129;28;20194;-71
2020/12/12 04:03:24;;;;;;;3.77;1.30;;;4.90;98.40;;;;;;5052973;28;20173;-71
2020/12/12 04:05:50;;;;;;;0.87;0.87;;;4.90;98.30;;;;;;5052679;28;20158;-70
2020/12/12 04:08:16;;;;;;;2.10;2.00;;;4.90;98.40;;;;;;5054562;28;20170;-71
2020/12/12 04:10:41;;;;;;;6.22;2.58;;;4.90;98.50;;;;;;5056690;28;20193;-71
2020/12/12 04:13:07;;;;;;;2.07;1.70;;;4.90;98.40;;;;;;5056868;28;20534;-71
2020/12/12 04:15:33;;;;;;;3.37;3.07;;;5.00;98.40;;;;;;5056523;28;20200;-71
2020/12/12 04:17:59;;;;;;;3.20;2.10;;;4.90;98.30;;;;;;5056888;28;20177;-71
2020/12/12 04:20:24;;;;;;;3.53;2.20;;;4.90;98.40;;;;;;5056650;28;20221;-71
2020/12/12 04:22:50;;;;;;;1.70;1.60;;;4.90;98.50;;;;;;5056498;28;20253;-70
2020/12/12 04:25:18;;;;;;;1.57;1.47;;;4.90;98.40;;;;;;5056561;28;20178;-71
2020/12/12 04:27:46;;;;;;;2.53;1.65;;;5.00;98.50;;;;;;5056591;28;20205;-71
2020/12/12 04:30:12;;;;;;;2.15;1.60;;;4.90;98.40;;;;;;5056572;28;20198;-71
2020/12/12 04:32:38;;;;;;;1.53;1.20;;;4.90;98.40;;;;;;5056625;28;20180;-71
2020/12/12 04:35:03;;;;;;;2.88;1.50;;;4.90;98.30;;;;;;5056021;28;20201;-71
2020/12/12 04:37:29;;;;;;;3.43;1.73;;;4.80;98.50;;;;;;5056363;28;20170;-71
2020/12/12 04:39:55;;;;;;;2.13;1.43;;;4.80;98.60;;;;;;5056327;28;20651;-71
2020/12/12 04:42:22;;;;;;;3.40;2.30;;;4.90;98.70;;;;;;5056272;28;20400;-71
2020/12/12 04:44:50;;;;;;;3.65;1.73;;;4.90;98.50;;;;;;5056168;28;20170;-71
2020/12/12 04:47:17;;;;;;;2.30;1.67;;;4.90;98.40;;;;;;5056006;28;20224;-71
2020/12/12 04:49:43;;;;;;;1.90;1.48;;;4.90;98.30;;;;;;5055922;28;20689;-71
2020/12/12 04:52:14;;;;;;;2.28;1.05;;;5.00;98.30;;;;;;5056022;28;20648;-71
2020/12/12 04:54:41;;;;;;;1.77;1.67;;;5.00;98.20;;;;;;5055991;28;20225;-71
2020/12/12 04:57:07;;;;;;;3.17;2.00;;;4.90;98.40;;;;;;5055997;28;20201;-71
2020/12/12 04:59:34;;;;;;;3.27;1.70;;;4.80;98.40;;;;;;5055826;28;20208;-71
2020/12/12 05:02:01;;;;;;;2.95;2.00;;;4.90;98.40;;;;;;5055854;28;20674;-71
2020/12/12 05:04:27;;;;;;;1.77;1.55;;;4.90;98.50;;;;;;5056047;28;20209;-71
2020/12/12 05:06:53;;;;;;;3.13;1.92;;;4.90;98.40;;;;;;5055603;28;20178;-71
2020/12/12 05:09:19;;;;;;;1.87;1.40;;;4.90;98.50;;;;;;5055896;28;20179;-71
2020/12/12 05:11:49;;;;;;;1.90;1.43;;;4.90;98.40;;;;;;5055630;28;20504;-71
2020/12/12 05:14:17;;;;;;;1.90;1.25;;;4.90;98.30;;;;;;5055620;28;20454;-71
2020/12/12 05:16:46;;;;;;;2.05;1.70;;;5.00;98.40;;;;;;5055394;28;20183;-71
2020/12/12 05:19:15;;;;;;;2.63;1.33;;;4.90;98.30;;;;;;5055013;28;20205;-71
2020/12/12 05:21:47;;;;;;;1.88;1.50;;;4.90;98.30;;;;;;5055413;28;20194;-71
2020/12/12 05:24:13;;;;;;;2.17;1.83;;;4.90;98.20;;;;;;5055424;28;20276;-71
2020/12/12 05:26:41;;;;;;;1.00;1.00;;;5.00;98.30;;;;;;5055267;28;20285;-71
2020/12/12 05:29:08;;;;;;;1.63;1.52;;;5.00;98.30;;;;;;5055477;28;20526;-71
2020/12/12 05:31:35;;;;;;;1.58;1.35;;;4.90;98.30;;;;;;5055195;28;20198;-71
2020/12/12 05:34:12;;;;;;;3.03;2.40;;;5.00;98.50;;;;;;5055223;28;20683;-71
2020/12/12 05:36:39;;;;;;;1.25;1.15;;;4.90;98.40;;;;;;5055241;28;20579;-71
2020/12/12 05:39:06;;;;;;;2.30;2.13;;;4.90;98.40;;;;;;5055387;28;20220;-70
2020/12/12 05:41:33;;;;;;;2.95;1.95;;;5.00;98.40;;;;;;5054962;28;20186;-71
2020/12/12 05:43:58;;;;;;;1.50;1.40;;;5.00;98.40;;;;;;5055081;28;20221;-71
2020/12/12 05:46:25;;;;;;;2.23;1.83;;;5.00;98.30;;;;;;5054814;28;20182;-71
2020/12/12 05:48:51;;;;;;;2.00;1.50;;;5.00;98.30;;;;;;5055064;28;20537;-71
2020/12/12 05:51:18;;;;;;;1.58;1.48;;;5.10;98.30;;;;;;5054978;28;20280;-71
2020/12/12 05:53:46;;;;;;;2.08;1.85;;;5.10;98.20;;;;;;5055449;28;20220;-71
2020/12/12 05:56:12;;;;;;;1.30;1.20;;;5.00;98.20;;;;;;5054662;28;20534;-71
2020/12/12 05:58:45;;;;;;;0.93;0.93;;;5.10;98.20;;;;;;5054966;28;20168;-71
2020/12/12 06:01:22;;;;;;;1.15;1.00;;;5.00;98.10;;;;;;5054977;28;20193;-71
2020/12/12 06:03:57;;;;;;;0.82;0.82;;;5.10;98.10;;;;;;5054988;28;20627;-71
2020/12/12 06:06:24;;;;;;;1.73;1.13;;;5.10;98.10;;;;;;5053214;28;20185;-71
2020/12/12 06:09:13;;;;;;;1.45;1.35;;;5.00;98.10;;;;;;5054799;28;20170;-71
2020/12/12 06:11:41;;;;;;;1.50;1.38;;;5.00;98.10;;;;;;5054698;28;20194;-71
2020/12/12 06:14:07;;;;;;;1.80;1.33;;;5.00;98.10;;;;;;5054461;28;20189;-71
2020/12/12 06:16:35;;;;;;;1.75;1.65;;;5.00;98.10;;;;;;5054502;28;20174;-71
2020/12/12 06:19:25;;;;;;;1.65;1.38;;;5.00;98.20;;;;;;5054498;28;20162;-71
2020/12/12 06:21:51;;;;;;;6.53;2.30;;;5.00;98.30;;;;;;5054345;28;20562;-71
2020/12/12 06:24:18;;;;;;;3.33;2.10;;;5.00;98.20;;;;;;5054259;28;20192;-71
2020/12/12 06:26:53;;;;;;;2.20;1.52;;;5.00;98.20;;;;;;5054065;28;20565;-71
2020/12/12 06:29:20;;;;;;;2.30;2.10;;;5.10;98.00;;;;;;5054254;28;20279;-70
2020/12/12 06:31:46;;;;;;;2.83;1.70;;;5.10;98.00;;;;;;5053168;28;20689;-71
2020/12/12 06:34:12;;;;;;;2.30;2.08;;;5.10;98.10;;;;;;5054051;28;20214;-70
2020/12/12 06:36:44;;;;;;;3.10;2.90;;;5.10;98.10;;;;;;5053967;28;20188;-70
2020/12/12 06:39:19;;;;;;;7.30;5.00;;;5.00;98.10;;;;;;5054168;28;20761;-71
2020/12/12 06:41:46;;;;;;;8.02;3.85;;;5.10;98.20;;;;;;5053851;28;20256;-71
2020/12/12 06:44:11;;;;;;;3.38;3.08;;;5.10;98.10;;;;;;5054154;28;20178;-71
2020/12/12 06:46:50;;;;;;;5.93;3.23;;;5.10;98.10;;;;;;5053703;28;20223;-71
2020/12/12 06:49:15;;;;;;;5.35;3.67;;;5.10;98.00;;;;;;5053522;28;20644;-71
2020/12/12 06:51:41;;;;;;;4.57;3.50;;;5.10;98.00;;;;;;5053683;28;20197;-71
2020/12/12 06:54:08;;;;;;;3.07;2.73;;;5.10;98.30;;;;;;5053857;28;20200;-71
2020/12/12 06:56:34;;;;;;;2.42;2.22;;;5.10;98.00;;;;;;5053477;28;20174;-71
2020/12/12 06:59:24;;;;;;;1.93;1.83;;;5.10;98.00;;;;;;5053865;28;20524;-71
2020/12/12 07:01:55;;;;;;;2.47;1.80;;;5.10;97.90;;;;;;5053558;28;20243;-70
2020/12/12 07:04:26;;;;;;;1.48;0.73;;;5.10;97.90;;;;;;5053754;28;20174;-71
2020/12/12 07:06:59;;;;;;;0.57;0.50;;;5.20;97.90;;;;;;5053223;28;20166;-71
2020/12/12 07:09:27;;;;;;;0.40;0.40;;;5.20;97.90;;;;;;5053599;28;20176;-71
2020/12/12 07:11:53;;;;;;;0.68;0.63;;;5.10;98.00;;;;;;5053547;28;20177;-71
2020/12/12 07:14:20;;;;;;;1.90;0.60;;;5.20;97.90;;;;;;5053511;28;20284;-71
2020/12/12 07:16:46;;;;;;;0.40;0.40;;;5.20;97.80;;;;;;5053317;28;20166;-71
2020/12/12 07:19:13;;;;;;;0.70;0.70;;;5.20;97.80;;;;;;5053463;28;20181;-71
2020/12/12 07:21:41;;;;;;;4.75;0.82;;;5.20;97.80;;;;;;5053131;28;20500;-71
2020/12/12 07:24:06;;;;;;;0.70;0.70;;;5.20;97.80;;;;;;5053197;28;20242;-71
2020/12/12 07:26:32;;;;;;;1.70;1.60;;;5.20;97.70;;;;;;5053182;28;20415;-71
2020/12/12 07:28:58;;;;;;;0.40;0.40;;;5.20;97.80;;;;;;5053469;28;20640;-71
2020/12/12 07:31:25;;;;;;;0.50;0.50;;;5.20;97.80;;;;;;5053231;28;20420;-71
2020/12/12 07:33:50;;;;;;;0.60;0.60;;;5.20;97.80;;;;;;5053208;28;20258;-71
2020/12/12 07:36:17;;;;;;;0.57;0.40;;;5.10;98.00;;;;;;5052975;28;20257;-71
2020/12/12 07:38:43;;;;;;;0.40;0.40;;;5.10;97.80;;;;;;5053239;28;20251;-71
2020/12/12 07:41:13;;;;;;;1.60;0.63;;;5.20;97.90;;;;;;5053169;28;20251;-71
2020/12/12 07:43:55;;;;;;;0.40;0.40;;;5.10;97.80;;;;;;5054372;28;20172;-70
2020/12/12 07:46:37;;;;;;;1.63;0.77;;;5.10;97.60;;;;;;5057080;28;20178;-71
2020/12/12 07:49:03;;;;;;;0.40;0.40;;;5.00;98.00;;;;;;5057307;28;20172;-70
2020/12/12 07:51:28;;;;;;;2.27;1.50;;;5.10;98.20;;;;;;5057137;28;20194;-71
2020/12/12 07:53:54;;;;;;;0.50;0.50;;;5.10;98.10;;;;;;5057155;28;20209;-71
2020/12/12 07:56:21;;;;;;;0.70;0.70;;;5.10;98.20;;;;;;5055755;28;20174;-70
2020/12/12 07:59:07;;;;;;;0.60;0.60;;;5.20;98.10;;;;;;5057255;28;20182;-70
2020/12/12 08:01:33;;;;;;;0.73;0.73;;;5.30;97.90;;;;;;5057060;28;20194;-71
2020/12/12 08:03:58;;;;;;;0.50;0.50;;;5.20;97.80;;;;;;5057042;28;20181;-71
2020/12/12 08:06:27;;;;;;;0.50;0.50;;;5.30;97.70;;;;;;5056858;28;20639;-71
2020/12/12 08:08:54;;;;;;;0.70;0.70;;;5.30;97.60;;;;;;5056825;28;20256;-71
2020/12/12 08:11:21;;;;;;;0.80;0.70;;;5.30;97.60;;;;;;5056977;28;20551;-71
2020/12/12 08:13:47;;;;;;;0.65;0.65;;;5.40;97.60;;;;;;5056594;28;20202;-70
2020/12/12 08:18:41;;;;;;;0.50;0.50;;;5.40;97.40;;;;;;5056900;28;20172;-71
2020/12/12 08:21:15;;;;;;;0.50;0.40;;;5.30;97.40;;;;;;5056691;28;20279;-71
2020/12/12 08:23:42;;;;;;;0.68;0.68;;;5.30;97.50;;;;;;5055241;28;20725;-70
2020/12/12 08:26:12;;;;;;;0.82;0.70;;;5.30;97.60;;;;;;5056379;28;20229;-70
2020/12/12 08:28:38;;;;;;;0.95;0.70;;;5.40;97.60;;;;;;5056494;28;20170;-71
2020/12/12 08:31:11;;;;;;;1.40;1.30;;;5.50;97.60;;;;;;5056354;28;20594;-71
2020/12/12 08:33:37;;;;;;;0.75;0.75;;;5.60;97.40;;;;;;5056477;28;20170;-71
2020/12/12 08:36:12;;;;;;;2.80;1.67;;;5.60;97.10;;;;;;5056210;28;20178;-71
2020/12/12 08:38:39;;;;;;;1.60;1.50;;;5.60;97.00;;;;;;5056435;28;20408;-71
2020/12/12 08:41:14;;;;;;;1.60;1.13;;;5.60;97.30;;;;;;5056211;28;20220;-70
2020/12/12 08:43:43;;;;;;;1.38;1.27;;;5.70;97.10;;;;;;5056115;28;20170;-71
2020/12/12 08:46:13;;;;;;;1.52;1.30;;;5.80;97.00;;;;;;5056267;28;20171;-71
2020/12/12 08:48:39;;;;;;;1.65;1.55;;;5.80;96.70;;;;;;5056134;28;20254;-71
2020/12/12 08:51:07;;;;;;;1.50;1.40;;;5.80;96.80;;;;;;5056169;28;20281;-70
2020/12/12 08:53:43;;;;;;;0.75;0.75;;;5.90;96.70;;;;;;5055978;28;20241;-71
2020/12/12 08:56:12;;;;;;;1.42;0.90;;;6.00;96.50;;;;;;5055286;28;20257;-70
2020/12/12 08:58:48;;;;;;;0.90;0.90;;;6.00;96.40;;;;;;5055998;28;20162;-71
2020/12/12 09:01:36;;;;;;;1.05;1.05;;;6.00;96.50;;;;;;5056088;28;20205;-71
2020/12/12 09:04:12;;;;;;;0.68;0.68;;;6.10;96.50;;;;;;5055983;28;20174;-71
2020/12/12 09:06:58;;;;;;;0.60;0.60;;;6.00;96.30;;;;;;5055766;28;20265;-71
2020/12/12 09:09:31;;;;;;;0.50;0.50;;;6.10;96.30;;;;;;5056253;28;20527;-71
2020/12/12 09:12:08;;;;;;;0.55;0.55;;;6.20;96.10;;;;;;5055914;28;20190;-71
2020/12/12 09:14:38;;;;;;;0.65;0.65;;;6.30;96.00;;;;;;5056019;28;20606;-71
2020/12/12 09:17:07;;;;;;;2.35;0.50;;;6.40;95.70;;;;;;5055616;28;20512;-71
2020/12/12 09:19:33;;;;;;;0.40;0.40;;;6.60;95.60;;;;;;5055577;28;20632;-71
2020/12/12 09:21:59;;;;;;;0.60;0.60;;;6.60;95.20;;;;;;5055570;28;20619;-71
2020/12/12 09:24:26;;;;;;;0.80;0.60;;;6.70;95.20;;;;;;5055336;28;20229;-71
2020/12/12 09:26:58;;;;;;;1.33;1.25;;;6.80;95.20;;;;;;5055343;28;20174;-71
2020/12/12 09:29:24;;;;;;;1.10;0.80;;;6.90;94.90;;;;;;5055637;28;20174;-71
2020/12/12 09:31:51;;;;;;;1.67;1.13;;;7.00;94.70;;;;;;5055150;28;20232;-71
2020/12/12 09:34:18;;;;;;;1.50;0.90;;;7.10;94.60;;;;;;5055293;28;20280;-71
2020/12/12 09:36:44;;;;;;;1.58;0.90;;;7.20;94.20;;;;;;5055097;28;20212;-71
2020/12/12 09:39:10;;;;;;;0.90;0.90;;;7.30;94.10;;;;;;5055376;28;20531;-71
2020/12/12 09:41:36;;;;;;;1.45;1.35;;;7.40;93.90;;;;;;5055130;28;20193;-71
2020/12/12 09:44:02;;;;;;;2.00;0.80;;;7.60;93.80;;;;;;5055434;28;20177;-71
2020/12/12 09:46:27;;;;;;;0.97;0.97;;;7.70;93.60;;;;;;5054973;28;20488;-71
2020/12/12 09:48:53;;;;;;;1.83;1.73;;;7.80;93.40;;;;;;5054982;28;20178;-71
2020/12/12 09:51:19;;;;;;;1.63;1.53;;;7.80;93.00;;;;;;5054870;28;20216;-71
2020/12/12 09:53:46;;;;;;;1.73;1.33;;;7.70;93.20;;;;;;5054788;28;20170;-71
2020/12/12 09:56:16;;;;;;;0.90;0.90;;;7.80;93.20;;;;;;5053474;28;20174;-71
2020/12/12 09:58:42;;;;;;;0.60;0.60;;;7.90;93.10;;;;;;5054914;28;20171;-71
2020/12/12 10:01:09;;;;;;;0.50;0.50;;;8.00;93.00;;;;;;5054970;28;20191;-71
2020/12/12 10:03:34;;;;;;;0.65;0.65;;;8.10;92.60;;;;;;5054775;28;20170;-71
2020/12/12 10:06:00;;;;;;;0.97;0.97;;;8.10;92.60;;;;;;5054240;28;20170;-71
2020/12/12 10:08:26;;;;;;;1.07;1.07;;;8.00;92.50;;;;;;5054650;28;20171;-71
2020/12/12 10:10:52;;;;;;;2.00;1.47;;;8.00;92.60;;;;;;5054886;28;20484;-71
2020/12/12 10:13:18;;;;;;;0.75;0.75;;;7.80;92.80;;;;;;5054523;28;20174;-70
2020/12/12 10:15:44;;;;;;;2.00;1.57;;;7.70;93.00;;;;;;5054248;28;20232;-71
2020/12/12 10:18:10;;;;;;;1.40;0.97;;;7.50;93.20;;;;;;5054545;28;20162;-71
2020/12/12 10:20:39;;;;;;;0.68;0.68;;;7.40;93.30;;;;;;5054544;28;20273;-71
2020/12/12 10:23:05;;;;;;;0.70;0.70;;;7.40;93.30;;;;;;5054210;28;20247;-71
2020/12/12 10:25:31;;;;;;;0.60;0.60;;;7.30;93.40;;;;;;5054167;28;20168;-71
2020/12/12 10:27:57;;;;;;;0.50;0.50;;;7.30;93.70;;;;;;5052972;28;20668;-71
2020/12/12 10:30:23;;;;;;;0.80;0.50;;;7.30;93.60;;;;;;5054134;28;20233;-71
2020/12/12 10:32:49;;;;;;;0.60;0.60;;;7.10;93.80;;;;;;5054316;28;20534;-71
2020/12/12 10:35:15;;;;;;;0.60;0.50;;;7.10;94.20;;;;;;5053837;28;20202;-71
2020/12/12 10:37:41;;;;;;;1.03;0.70;;;7.20;94.20;;;;;;5054091;28;20401;-71
2020/12/12 10:40:20;;;;;;;1.57;0.80;;;7.20;94.10;;;;;;5054026;28;20805;-71
2020/12/12 10:42:46;;;;;;;0.50;0.50;;;7.30;94.10;;;;;;5052764;28;20655;-71
2020/12/12 10:45:12;;;;;;;0.60;0.60;;;7.20;94.10;;;;;;5054112;28;20206;-71
2020/12/12 10:47:37;;;;;;;0.60;0.57;;;7.20;94.00;;;;;;5054039;28;20236;-71
2020/12/12 10:50:05;;;;;;;0.50;0.50;;;7.20;94.20;;;;;;5053765;28;20206;-71
2020/12/12 10:52:31;;;;;;;0.70;0.70;;;7.30;94.00;;;;;;5053850;28;20188;-71
2020/12/12 10:54:56;;;;;;;0.87;0.87;;;7.40;94.00;;;;;;5053594;28;20198;-71
2020/12/12 10:57:23;;;;;;;0.63;0.63;;;7.40;93.90;;;;;;5054006;28;20166;-71
2020/12/12 10:59:49;;;;;;;0.75;0.75;;;7.30;94.00;;;;;;5053714;28;20166;-71
2020/12/12 11:02:15;;;;;;;0.85;0.80;;;7.30;94.20;;;;;;5053645;28;20181;-71
2020/12/12 11:04:41;;;;;;;2.20;2.00;;;7.40;94.10;;;;;;5053744;28;20532;-71
2020/12/12 11:07:08;;;;;;;1.13;1.05;;;7.50;94.00;;;;;;5053798;28;20170;-71
2020/12/12 11:09:34;;;;;;;1.92;1.70;;;7.50;93.80;;;;;;5053674;28;20178;-71
2020/12/12 11:12:00;;;;;;;1.55;1.30;;;7.40;94.00;;;;;;5053591;28;20559;-70
2020/12/12 11:14:28;;;;;;;1.10;1.10;;;7.50;94.10;;;;;;5053547;28;20213;-71
2020/12/12 11:16:54;;;;;;;1.10;1.10;;;7.60;93.90;;;;;;5053347;28;20522;-71
2020/12/12 11:19:20;;;;;;;0.88;0.88;;;7.80;93.70;;;;;;5053148;28;20174;-71
2020/12/12 11:21:46;;;;;;;1.42;1.13;;;8.00;93.40;;;;;;5053549;28;20191;-71
2020/12/12 11:24:11;;;;;;;3.03;0.80;;;8.10;93.30;;;;;;5053450;28;20683;-71
2020/12/12 11:26:37;;;;;;;2.77;2.57;;;8.10;93.00;;;;;;5053053;28;20168;-71
2020/12/12 11:29:03;;;;;;;1.63;1.53;;;8.20;93.10;;;;;;5053454;28;20198;-71
2020/12/12 11:31:29;;;;;;;8.55;6.75;;;8.30;93.10;;;;;;5053229;28;20193;-71
2020/12/12 11:34:05;;;;;;;12.63;8.83;;;8.40;93.00;;;;;;5053663;28;20302;-71
2020/12/12 11:39:01;;;;;;;11.17;8.40;;;8.40;92.90;;;;;;5053623;28;20205;-71
2020/12/12 11:41:44;;;;;;;9.82;6.03;;;8.30;92.80;;;;;;5053176;28;20190;-71
2020/12/12 11:46:38;;;;;;;2.27;0.93;;;8.20;92.90;;;;;;5053266;28;20179;-71
2020/12/12 11:49:05;;;;;;;1.08;0.90;;;8.10;92.60;;;;;;5053554;28;20565;-71
2020/12/12 11:51:35;;;;;;;1.60;1.50;;;8.10;92.70;;;;;;5053125;28;20657;-71
2020/12/12 11:54:01;;;;;;;1.60;1.50;;;8.00;93.00;;;;;;5053367;28;20190;-71
2020/12/12 11:56:27;;;;;;;1.93;1.80;;;8.00;93.10;;;;;;5052886;28;20204;-71
2020/12/12 11:58:52;;;;;;;1.87;1.60;;;7.90;93.10;;;;;;5053003;28;20180;-71
2020/12/12 12:01:20;;;;;;;2.50;1.80;;;7.70;93.30;;;;;;5052993;28;20656;-71
2020/12/12 12:03:46;;;;;;;2.45;2.33;;;7.50;93.50;;;;;;5052972;28;20253;-71
2020/12/12 12:06:11;;;;;;;1.57;1.30;;;7.40;93.90;;;;;;5053000;28;20198;-71
2020/12/12 12:11:29;;;;;;;1.83;1.73;;;7.00;94.30;;;;;;5052914;28;20560;-71
2020/12/12 12:14:00;;;;;;;1.77;1.50;;;6.70;95.10;;;;;;5053081;28;20201;-71
2020/12/12 12:16:27;;;;;;;1.65;1.55;;;6.80;95.30;;;;;;5053032;28;20266;-71
2020/12/12 12:18:53;;;;;;;0.70;0.70;;;6.90;95.20;;;;;;5052872;28;20175;-71
2020/12/12 12:21:19;;;;;;;2.05;1.65;;;6.90;94.90;;;;;;5052760;28;20201;-71
2020/12/12 12:23:44;;;;;;;1.43;1.27;;;7.00;94.90;;;;;;5052679;28;20190;-71
2020/12/12 12:26:13;;;;;;;2.40;2.00;;;6.90;94.90;;;;;;5052741;28;20197;-71
2020/12/12 12:28:39;;;;;;;2.10;1.90;;;6.80;95.10;;;;;;5052985;28;20173;-71
2020/12/12 12:31:05;;;;;;;3.63;2.00;;;6.90;95.50;;;;;;5055631;28;20261;-71
2020/12/12 12:33:30;;;;;;;1.90;1.47;;;6.80;95.20;;;;;;5056635;28;20192;-70
2020/12/12 12:35:56;;;;;;;3.87;3.50;;;6.40;95.60;;;;;;5056205;28;20245;-71
2020/12/12 12:38:22;;;;;;;3.60;3.20;;;6.60;96.30;;;;;;5055328;28;20181;-71
2020/12/12 12:40:48;;;;;;;2.83;2.05;;;6.70;95.90;;;;;;5056179;28;20186;-71
2020/12/12 12:43:14;;;;;;;2.10;2.00;;;6.90;96.00;;;;;;5056310;28;20170;-70
2020/12/12 12:45:40;;;;;;;5.47;3.67;;;6.90;95.40;;;;;;5056079;28;20212;-71
2020/12/12 12:48:05;;;;;;;3.47;3.20;;;7.00;95.30;;;;;;5056355;28;20628;-71
2020/12/12 12:50:35;;;;;;;3.80;3.10;;;7.00;95.30;;;;;;5056036;28;20297;-71
2020/12/12 12:53:09;;;;;;;3.78;3.47;;;7.00;95.70;;;;;;5056041;28;20174;-71
2020/12/12 12:55:35;;;;;;;3.03;2.83;;;7.10;95.70;;;;;;5056081;28;20209;-71
2020/12/12 12:58:02;;;;;;;3.97;2.80;;;7.10;95.80;;;;;;5056086;28;20196;-71
2020/12/12 13:00:28;;;;;;;2.20;2.10;;;7.20;95.40;;;;;;5056188;28;20704;-71
2020/12/12 13:02:54;;;;;;;2.10;2.00;;;7.30;95.20;;;;;;5055911;28;20541;-71
2020/12/12 13:05:23;;;;;;;3.42;2.38;;;7.30;95.20;;;;;;5055778;28;20174;-71
2020/12/12 13:07:49;;;;;;;2.10;1.85;;;7.40;95.20;;;;;;5055810;28;20171;-71
2020/12/12 13:10:15;;;;;;;4.22;2.42;;;7.50;95.00;;;;;;5055624;28;20542;-71